< < Back
Terminal Aerodrome Forecast


Current Version              Previous Versions:   1  2  3  4  5  6  7  8  9  

Terminal Aerodrome Forecast

771
FTUS42 KTAE 182300
TAFDHN
TAF
KDHN 182320Z 1900/1924 31003KT P6SM SCT040 BKN100
     FM190800 03004KT P6SM BKN040 OVC100
     FM192000 04004KT 6SM -RA BKN040 OVC100=



Latest METAR

411
SAUS70 KWBC 191500 RRB
MTRDHN
METAR KDHN 191453Z 04005KT 10SM CLR 10/02 A3022 RMK AO2 SLP233 T01000017
53018 $


USA.gov is the U.S. government's official web portal to all federal, state and local government web resources and services.